createdAt,value
2023-01-17T05:02:16.929Z,33.39
2023-01-17T05:04:44.021Z,33.46
2023-01-17T05:07:11.107Z,33.34
2023-01-17T05:09:38.378Z,33.36
2023-01-17T05:12:05.259Z,33.26
2023-01-17T05:14:34.369Z,33.65
2023-01-17T05:17:03.234Z,33.35
2023-01-17T05:19:30.157Z,33.68
2023-01-17T05:22:04.233Z,33.39
2023-01-17T05:24:31.656Z,33.55
2023-01-17T05:27:03.294Z,33.44
2023-01-17T05:29:30.959Z,33.58
2023-01-17T05:31:57.947Z,33.37
2023-01-17T05:34:25.321Z,33.24
2023-01-17T05:36:52.997Z,33.49
2023-01-17T05:39:20.219Z,33.75
2023-01-17T05:41:47.415Z,33.38
2023-01-17T05:44:15.480Z,33.34
2023-01-17T05:46:42.810Z,33.64
2023-01-17T05:49:09.768Z,33.15
2023-01-17T05:51:39.732Z,33.31
2023-01-17T05:54:07.501Z,33.53
2023-01-17T05:56:34.809Z,33.58
2023-01-17T05:59:02.592Z,33.67
2023-01-17T06:01:29.287Z,33.54
2023-01-17T06:03:56.080Z,33.31
2023-01-17T06:06:23.725Z,33.02
2023-01-17T06:08:50.473Z,33.06
2023-01-17T06:11:18.860Z,32.85
2023-01-17T06:13:45.845Z,33.27
2023-01-17T06:16:13.660Z,33.01
2023-01-17T06:18:40.760Z,33.47
2023-01-17T06:21:07.443Z,33.34
2023-01-17T06:23:34.491Z,33.20
2023-01-17T06:26:03.688Z,33.37
2023-01-17T06:28:30.573Z,33.40
2023-01-17T06:30:57.737Z,33.31
2023-01-17T06:33:25.036Z,33.37
2023-01-17T06:35:52.696Z,33.24
2023-01-17T06:38:19.461Z,33.45
2023-01-17T06:40:46.220Z,33.37
2023-01-17T06:43:13.265Z,33.34
2023-01-17T06:45:40.511Z,33.46
2023-01-17T06:48:08.559Z,33.50
2023-01-17T06:50:38.339Z,33.43
2023-01-17T06:53:06.022Z,33.40
2023-01-17T06:55:33.907Z,33.35
2023-01-17T06:58:02.960Z,33.21
2023-01-17T07:00:30.931Z,33.29
2023-01-17T07:02:58.036Z,33.46
2023-01-17T07:05:27.340Z,33.38
2023-01-17T07:07:54.297Z,33.38
2023-01-17T07:10:21.078Z,33.20
2023-01-17T07:12:47.846Z,33.39
2023-01-17T07:15:15.857Z,33.29
2023-01-17T07:17:43.048Z,33.16
2023-01-17T07:20:10.434Z,33.26
2023-01-17T07:22:37.808Z,33.42
2023-01-17T07:25:05.219Z,33.39
2023-01-17T07:27:33.539Z,33.34
2023-01-17T07:30:00.527Z,33.46
2023-01-17T07:32:28.211Z,33.42
2023-01-17T07:34:56.805Z,33.28
2023-01-17T07:37:26.366Z,33.46
2023-01-17T07:39:54.186Z,33.58
2023-01-17T07:42:23.214Z,35.64
2023-01-17T07:44:51.893Z,34.08
2023-01-17T07:47:19.998Z,34.31
2023-01-17T07:49:47.747Z,34.36
2023-01-17T07:52:16.314Z,34.46
2023-01-17T07:54:44.090Z,34.12
2023-01-17T07:57:14.740Z,33.75
2023-01-17T07:59:41.836Z,33.63
2023-01-17T08:02:18.187Z,33.59
2023-01-17T08:04:45.011Z,33.39
2023-01-17T08:07:15.025Z,33.64
2023-01-17T08:09:43.064Z,33.35
2023-01-17T08:12:10.536Z,33.58
2023-01-17T08:14:43.011Z,33.54
2023-01-17T08:17:14.171Z,33.32
2023-01-17T08:19:42.326Z,33.62
2023-01-17T08:22:10.151Z,33.65
2023-01-17T08:24:37.804Z,33.48
2023-01-17T08:27:04.622Z,33.20
2023-01-17T08:29:31.457Z,33.70
2023-01-17T08:31:58.147Z,33.60
2023-01-17T08:34:26.764Z,33.48
2023-01-17T08:36:54.029Z,33.42
2023-01-17T08:39:21.764Z,33.39
2023-01-17T08:41:49.125Z,33.33
2023-01-17T08:44:16.280Z,33.49
2023-01-17T08:46:44.242Z,33.54
2023-01-17T08:49:11.026Z,33.38
2023-01-17T08:51:38.592Z,33.36
2023-01-17T08:54:05.888Z,33.41
2023-01-17T08:56:32.823Z,33.31
2023-01-17T08:58:59.936Z,33.27
2023-01-17T09:01:26.864Z,33.32
2023-01-17T09:03:54.169Z,33.27
2023-01-17T09:06:22.782Z,33.51
2023-01-17T09:08:51.747Z,33.54
2023-01-17T09:11:18.570Z,33.27
2023-01-17T09:13:45.993Z,33.56
2023-01-17T09:16:12.816Z,33.25
2023-01-17T09:18:40.093Z,33.23
2023-01-17T09:21:11.889Z,33.19
2023-01-17T09:23:38.761Z,33.33
2023-01-17T09:26:05.845Z,33.55
2023-01-17T09:28:33.322Z,33.42
2023-01-17T09:31:01.640Z,33.25
2023-01-17T09:33:28.843Z,33.23
2023-01-17T09:35:55.559Z,33.36
2023-01-17T09:38:23.911Z,33.25
2023-01-17T09:40:51.016Z,33.24
2023-01-17T09:43:29.362Z,33.26
2023-01-17T09:45:56.741Z,33.16
2023-01-17T09:48:30.889Z,33.25
2023-01-17T09:51:00.449Z,33.22
2023-01-17T09:53:27.162Z,33.29
2023-01-17T09:55:58.836Z,33.42
2023-01-17T09:58:55.884Z,33.18
2023-01-17T10:01:30.917Z,33.33
2023-01-17T10:04:22.269Z,33.30
2023-01-17T10:07:15.353Z,33.39
2023-01-17T10:09:57.353Z,33.31
2023-01-17T10:12:39.583Z,33.44
2023-01-17T10:15:29.006Z,33.51
2023-01-17T10:18:10.131Z,33.24
2023-01-17T10:20:50.421Z,33.58
2023-01-17T10:23:38.334Z,33.23
2023-01-17T10:26:37.158Z,32.99
2023-01-17T10:29:05.064Z,33.37
2023-01-17T10:31:38.661Z,33.28
2023-01-17T10:34:14.068Z,33.39
2023-01-17T10:36:45.030Z,33.09
2023-01-17T10:39:17.612Z,26.81
2023-01-17T10:41:45.457Z,25.25
2023-01-17T10:44:21.444Z,25.65
2023-01-17T10:46:53.000Z,26.01
2023-01-17T10:49:22.592Z,26.62
2023-01-17T10:52:02.193Z,27.11
2023-01-17T10:54:55.270Z,27.65
2023-01-17T10:57:23.849Z,28.25
2023-01-17T10:59:50.986Z,28.19
2023-01-17T11:02:19.651Z,28.45
2023-01-17T11:04:49.123Z,28.56
2023-01-17T11:07:16.971Z,28.74
2023-01-17T11:09:49.696Z,28.79
2023-01-17T11:12:27.428Z,28.93
2023-01-17T11:15:22.509Z,29.16
2023-01-17T11:18:01.606Z,29.09
2023-01-17T11:20:32.808Z,29.47
2023-01-17T11:23:22.134Z,29.45
2023-01-17T11:26:02.679Z,29.41
2023-01-17T11:28:35.545Z,29.92
2023-01-17T11:31:07.973Z,29.67
2023-01-17T11:33:47.023Z,29.76
2023-01-17T11:36:23.330Z,29.93
2023-01-17T11:39:14.416Z,30.16
2023-01-17T11:41:41.526Z,30.30
2023-01-17T11:44:30.490Z,29.98
2023-01-17T11:47:10.598Z,30.22
2023-01-17T11:49:37.484Z,30.29
2023-01-17T11:52:10.928Z,30.39
2023-01-17T11:54:39.651Z,30.43
2023-01-17T11:57:08.525Z,30.58
2023-01-17T11:59:37.506Z,30.77
2023-01-17T12:02:24.022Z,30.65
2023-01-17T12:05:28.208Z,30.54
2023-01-17T12:08:19.748Z,30.59
2023-01-17T12:11:00.432Z,26.82
2023-01-17T12:14:00.321Z,26.03
2023-01-17T12:16:45.350Z,26.73
2023-01-17T12:19:32.319Z,27.11
2023-01-17T12:22:36.091Z,27.74
2023-01-17T12:25:26.015Z,28.20
2023-01-17T12:28:04.570Z,28.01
2023-01-17T12:30:38.292Z,28.10
2023-01-17T12:33:15.954Z,28.46
2023-01-17T12:35:46.136Z,28.63
2023-01-17T12:38:31.647Z,28.52
2023-01-17T12:41:10.334Z,28.58
2023-01-17T12:43:39.647Z,28.72
2023-01-17T12:46:20.899Z,28.62
2023-01-17T12:48:51.067Z,28.86
2023-01-17T12:51:36.522Z,28.74
2023-01-17T12:54:13.005Z,28.78
2023-01-17T12:56:43.750Z,29.15
2023-01-17T12:59:53.839Z,28.63
2023-01-17T13:02:39.531Z,28.77
2023-01-17T13:05:15.297Z,30.00
2023-01-17T13:08:00.044Z,29.02
2023-01-17T13:10:37.471Z,27.25
2023-01-17T13:13:33.291Z,26.92
2023-01-17T13:16:16.286Z,27.05
2023-01-17T13:18:48.998Z,27.20
2023-01-17T13:21:32.263Z,27.67
2023-01-17T13:24:09.535Z,27.82
2023-01-17T13:27:00.825Z,27.88
2023-01-17T13:29:59.119Z,27.88
2023-01-17T13:32:53.270Z,28.19
2023-01-17T13:35:23.125Z,28.47
2023-01-17T13:38:20.826Z,28.43
2023-01-17T13:41:19.040Z,28.48
2023-01-17T13:44:04.706Z,28.75
2023-01-17T13:46:32.234Z,28.56
2023-01-17T13:49:21.420Z,28.71
2023-01-17T13:52:19.555Z,28.96
2023-01-17T13:54:55.754Z,28.73
2023-01-17T13:57:30.383Z,29.09
2023-01-17T14:00:23.629Z,29.22
2023-01-17T14:02:51.166Z,29.34
2023-01-17T14:05:23.125Z,29.36
2023-01-17T14:07:56.010Z,29.63
2023-01-17T14:10:46.241Z,29.41
2023-01-17T14:13:39.147Z,29.72
2023-01-17T14:16:23.174Z,29.97
2023-01-17T14:18:50.042Z,29.49
2023-01-17T14:21:21.823Z,29.79
2023-01-17T14:24:04.380Z,29.82
2023-01-17T14:26:42.662Z,29.89
2023-01-17T14:30:00.669Z,29.70
2023-01-17T14:33:01.059Z,29.76
2023-01-17T14:35:31.890Z,29.75
2023-01-17T14:38:03.055Z,29.86
2023-01-17T14:40:32.166Z,30.08
2023-01-17T14:43:13.179Z,30.23
2023-01-17T14:45:40.656Z,30.28
2023-01-17T14:48:22.048Z,30.10
2023-01-17T14:50:54.755Z,30.13
2023-01-17T14:53:25.994Z,30.38
2023-01-17T14:55:56.448Z,30.22
2023-01-17T14:58:34.404Z,29.97
2023-01-17T15:01:12.711Z,30.21
2023-01-17T15:03:53.923Z,30.48
2023-01-17T15:06:22.751Z,30.20
2023-01-17T15:08:51.810Z,30.18
2023-01-17T15:11:30.193Z,30.45
2023-01-17T15:13:59.401Z,30.53
2023-01-17T15:16:34.079Z,30.24
2023-01-17T15:19:01.266Z,30.66
2023-01-17T15:21:32.188Z,30.40
2023-01-17T15:24:07.469Z,30.47
2023-01-17T15:26:39.581Z,30.39
2023-01-17T15:29:09.595Z,30.75
2023-01-17T15:31:47.161Z,30.40
2023-01-17T15:34:31.330Z,30.54
2023-01-17T15:37:22.244Z,30.72
2023-01-17T15:39:50.065Z,30.58
2023-01-17T15:42:24.622Z,30.48
2023-01-17T15:44:55.861Z,30.44
2023-01-17T15:47:32.685Z,30.58
2023-01-17T15:50:00.107Z,30.62
2023-01-17T15:52:26.906Z,30.75
2023-01-17T15:55:12.196Z,30.49
2023-01-17T15:57:39.111Z,30.57
2023-01-17T16:00:38.946Z,30.74
2023-01-17T16:03:25.489Z,30.56
2023-01-17T16:05:54.615Z,30.77
2023-01-17T16:08:30.267Z,30.57
2023-01-17T16:11:06.228Z,30.88
2023-01-17T16:13:34.959Z,30.65
2023-01-17T16:16:24.118Z,30.85
2023-01-17T16:18:58.586Z,30.77
2023-01-17T16:21:28.104Z,28.53
2023-01-17T16:23:55.192Z,25.94
2023-01-17T16:26:22.455Z,25.54
2023-01-17T16:28:50.614Z,26.20
2023-01-17T16:31:18.269Z,26.73
2023-01-17T16:33:46.197Z,27.87
2023-01-17T16:36:14.959Z,27.92
2023-01-17T16:38:44.910Z,28.30
2023-01-17T16:41:11.814Z,28.30
2023-01-17T16:43:39.593Z,28.57
2023-01-17T16:46:07.190Z,28.37
2023-01-17T16:48:33.959Z,28.46
2023-01-17T16:51:01.764Z,28.60
2023-01-17T16:53:29.202Z,28.97
2023-01-17T16:55:57.847Z,28.80
2023-01-17T16:58:24.799Z,28.60
2023-01-17T17:00:52.361Z,29.23
2023-01-17T17:03:20.236Z,29.31
2023-01-17T17:05:55.054Z,29.35
2023-01-17T17:08:22.602Z,29.49
2023-01-17T17:10:49.408Z,29.55
2023-01-17T17:13:16.092Z,29.18
2023-01-17T17:15:47.042Z,29.42
2023-01-17T17:18:15.010Z,29.27
2023-01-17T17:20:42.428Z,29.54
2023-01-17T17:23:10.272Z,29.53
2023-01-17T17:25:38.452Z,29.48
2023-01-17T17:28:06.404Z,29.56
2023-01-17T17:30:36.740Z,29.65
2023-01-17T17:33:04.673Z,29.77
2023-01-17T17:35:35.045Z,29.88
2023-01-17T17:38:02.264Z,29.86
2023-01-17T17:40:29.115Z,29.79
2023-01-17T17:42:56.828Z,30.02
2023-01-17T17:45:24.659Z,29.92
2023-01-17T17:47:52.846Z,29.80
2023-01-17T17:50:19.803Z,30.21
2023-01-17T17:52:48.091Z,29.94
2023-01-17T17:55:19.175Z,30.29
2023-01-17T17:57:47.215Z,30.03
2023-01-17T18:00:14.443Z,30.25
2023-01-17T18:02:41.642Z,30.12
2023-01-17T18:05:13.483Z,30.21
2023-01-17T18:07:40.333Z,30.19
2023-01-17T18:10:08.182Z,30.09
2023-01-17T18:12:35.561Z,30.18
2023-01-17T18:15:03.596Z,30.22
2023-01-17T18:17:31.127Z,30.46
2023-01-17T18:19:57.925Z,30.21
2023-01-17T18:22:24.957Z,30.32
2023-01-17T18:24:53.051Z,30.45
2023-01-17T18:27:19.949Z,30.11
2023-01-17T18:29:46.776Z,30.65
2023-01-17T18:32:14.998Z,30.17
2023-01-17T18:34:42.530Z,30.28
2023-01-17T18:37:09.556Z,30.09
2023-01-17T18:39:36.313Z,30.59
2023-01-17T18:42:03.115Z,30.86
2023-01-17T18:44:30.288Z,30.46
2023-01-17T18:47:02.689Z,30.78
2023-01-17T18:49:29.976Z,30.48
2023-01-17T18:51:58.546Z,30.25
2023-01-17T18:54:25.342Z,30.69
2023-01-17T18:56:55.172Z,30.73
2023-01-17T18:59:23.626Z,30.76
2023-01-17T19:01:50.632Z,30.70
2023-01-17T19:04:18.097Z,30.30
2023-01-17T19:06:48.355Z,30.47
2023-01-17T19:09:16.900Z,30.65
2023-01-17T19:11:47.567Z,30.42
2023-01-17T19:14:16.551Z,30.74
2023-01-17T19:16:43.583Z,30.65
2023-01-17T19:19:12.790Z,30.79
2023-01-17T19:21:40.328Z,30.67
2023-01-17T19:24:12.174Z,30.68
2023-01-17T19:26:39.279Z,30.55
2023-01-17T19:29:07.698Z,30.43
2023-01-17T19:31:37.427Z,30.84
2023-01-17T19:34:05.382Z,30.82
2023-01-17T19:36:35.211Z,30.66
2023-01-17T19:39:05.326Z,30.81
2023-01-17T19:41:33.725Z,30.88
2023-01-17T19:44:08.892Z,30.70
2023-01-17T19:46:39.040Z,30.84
2023-01-17T19:49:07.478Z,30.85
2023-01-17T19:51:34.625Z,30.95
2023-01-17T19:54:04.092Z,31.22
2023-01-17T19:56:31.545Z,30.87
2023-01-17T19:59:05.613Z,31.02
2023-01-17T20:01:33.820Z,30.94
2023-01-17T20:04:08.173Z,31.20
2023-01-17T20:06:36.778Z,31.01
2023-01-17T20:09:09.117Z,30.88
2023-01-17T20:11:42.941Z,31.04
2023-01-17T20:14:13.687Z,31.07
2023-01-17T20:16:41.459Z,30.90
2023-01-17T20:19:09.383Z,30.92
2023-01-17T20:21:36.205Z,30.92
2023-01-17T20:24:06.086Z,31.11
2023-01-17T20:26:37.454Z,31.11
2023-01-17T20:29:07.519Z,31.07
2023-01-17T20:31:38.182Z,31.19
2023-01-17T20:34:06.671Z,30.95
2023-01-17T20:36:33.800Z,31.15
2023-01-17T20:39:03.098Z,31.20
2023-01-17T20:41:38.452Z,31.15
2023-01-17T20:44:06.806Z,31.00
2023-01-17T20:46:40.712Z,30.90
2023-01-17T20:49:14.983Z,31.12
2023-01-17T20:51:44.534Z,31.22
2023-01-17T20:54:14.317Z,31.15
2023-01-17T20:56:43.559Z,31.05
2023-01-17T20:59:15.334Z,31.21
2023-01-17T21:01:44.279Z,31.11
2023-01-17T21:04:13.273Z,31.22
2023-01-17T21:06:41.588Z,31.20
2023-01-17T21:09:10.340Z,31.34
2023-01-17T21:11:37.660Z,31.14
2023-01-17T21:14:08.592Z,31.25
2023-01-17T21:16:36.144Z,31.25
2023-01-17T21:19:03.155Z,30.91
2023-01-17T21:21:30.131Z,31.43
2023-01-17T21:23:59.138Z,31.45
2023-01-17T21:26:27.374Z,31.17
2023-01-17T21:28:54.391Z,31.23
2023-01-17T21:31:26.629Z,31.36
2023-01-17T21:34:25.355Z,31.32
2023-01-17T21:36:52.422Z,31.44
2023-01-17T21:39:20.097Z,31.47
2023-01-17T21:41:48.212Z,31.04
2023-01-17T21:44:20.602Z,31.30
2023-01-17T21:46:49.080Z,31.40
2023-01-17T21:49:18.287Z,31.16
2023-01-17T21:51:53.239Z,31.10
2023-01-17T21:54:46.513Z,31.13
2023-01-17T21:57:33.448Z,31.27
2023-01-17T22:00:02.437Z,31.24
2023-01-17T22:02:45.750Z,31.20
2023-01-17T22:05:12.777Z,31.03
2023-01-17T22:07:39.618Z,31.19
2023-01-17T22:10:07.036Z,31.23
2023-01-17T22:12:36.928Z,31.09
2023-01-17T22:15:05.590Z,31.04
2023-01-17T22:17:32.320Z,31.15
2023-01-17T22:19:58.939Z,31.39
2023-01-17T22:22:25.567Z,31.05
2023-01-17T22:24:52.185Z,31.42
2023-01-17T22:27:20.406Z,31.52
2023-01-17T22:29:47.049Z,31.00
2023-01-17T22:32:13.676Z,31.31
2023-01-17T22:34:40.261Z,31.38
2023-01-17T22:37:09.983Z,31.43
2023-01-17T22:39:37.699Z,31.33
2023-01-17T22:42:07.201Z,31.45
2023-01-17T22:44:33.816Z,31.37
2023-01-17T22:47:00.453Z,31.61
2023-01-17T22:49:27.136Z,31.56
2023-01-17T22:51:53.781Z,31.67
2023-01-17T22:54:20.462Z,31.66
2023-01-17T22:56:47.125Z,31.80
2023-01-17T22:59:13.743Z,31.61
2023-01-17T23:01:43.182Z,31.70
2023-01-17T23:04:11.901Z,31.59
2023-01-17T23:06:39.117Z,31.54
2023-01-17T23:09:08.508Z,31.72
2023-01-17T23:11:39.633Z,31.59
2023-01-17T23:14:16.949Z,31.85
2023-01-17T23:17:06.283Z,31.70
2023-01-17T23:19:52.433Z,31.39
2023-01-17T23:22:22.609Z,31.50
2023-01-17T23:24:55.824Z,31.72
2023-01-17T23:27:49.792Z,31.65
2023-01-17T23:30:17.811Z,31.68
2023-01-17T23:33:05.523Z,31.45
2023-01-17T23:35:33.481Z,31.85
2023-01-17T23:38:18.559Z,31.83
2023-01-17T23:41:05.565Z,31.71
2023-01-17T23:43:32.430Z,31.84
2023-01-17T23:45:58.998Z,31.72
2023-01-17T23:48:28.343Z,31.74
2023-01-17T23:51:10.924Z,31.74
2023-01-17T23:53:38.084Z,31.92
2023-01-17T23:56:07.653Z,31.97
2023-01-17T23:58:34.201Z,31.66
